ETD14X OMAA-OMDB
Flight info
| Callsign | ETD14X |
|---|---|
| Flight time | 0h 27m |
| Altitude | 9000 |
| Route | LORID |
| Aircraft | A35K/H-SDE2E3GHIJ3J4J5LM1ORWXY/LB1D1 |
Departure
| Time | 2026-04-23 15:43 |
|---|---|
| Airport | Zayed International Airport (OMAA) |
Arrival
| Time | 2026-04-23 16:10 |
|---|---|
| Airport | Dubai International Airport (OMDB) |
| Time | Latitude | Longitude | Altitude | Speed | Heading |
|---|---|---|---|---|---|
| 2026-04-23 15:28 | 24.44903 | 54.63975 | 83 ft | 0 kts | 333° |
| 2026-04-23 15:34 | 24.44892 | 54.63981 | 78 ft | 2 kts | 333° |
| 2026-04-23 15:34 | 24.44878 | 54.63989 | 67 ft | 2 kts | 333° |
| 2026-04-23 15:35 | 24.44865 | 54.63997 | 90 ft | 2 kts | 333° |
| 2026-04-23 15:35 | 24.44851 | 54.64004 | 85 ft | 2 kts | 333° |
| 2026-04-23 15:35 | 24.44834 | 54.64011 | 85 ft | 3 kts | 2° |
| 2026-04-23 15:35 | 24.44817 | 54.64007 | 86 ft | 3 kts | 36° |
| 2026-04-23 15:36 | 24.44805 | 54.63994 | 85 ft | 0 kts | 67° |
| 2026-04-23 15:36 | 24.44805 | 54.63995 | 85 ft | 0 kts | 67° |
| 2026-04-23 15:36 | 24.44805 | 54.63996 | 85 ft | 1 kts | 70° |
| 2026-04-23 15:37 | 24.44803 | 54.64012 | 85 ft | 4 kts | 102° |
| 2026-04-23 15:37 | 24.44785 | 54.64048 | 87 ft | 7 kts | 123° |
| 2026-04-23 15:37 | 24.44764 | 54.64082 | 84 ft | 9 kts | 127° |
| 2026-04-23 15:37 | 24.44690 | 54.64117 | 86 ft | 8 kts | 200° |
| 2026-04-23 15:38 | 24.44634 | 54.64080 | 85 ft | 11 kts | 216° |
| 2026-04-23 15:38 | 24.44555 | 54.64014 | 86 ft | 17 kts | 218° |
| 2026-04-23 15:38 | 24.44451 | 54.63979 | 87 ft | 12 kts | 154° |
| 2026-04-23 15:38 | 24.44394 | 54.64053 | 86 ft | 15 kts | 127° |
| 2026-04-23 15:39 | 24.44318 | 54.64161 | 87 ft | 20 kts | 128° |
| 2026-04-23 15:39 | 24.44215 | 54.64304 | 88 ft | 28 kts | 128° |
| 2026-04-23 15:39 | 24.44081 | 54.64491 | 85 ft | 34 kts | 128° |
| 2026-04-23 15:39 | 24.43923 | 54.64716 | 86 ft | 40 kts | 128° |
| 2026-04-23 15:40 | 24.43742 | 54.64972 | 87 ft | 45 kts | 128° |
| 2026-04-23 15:40 | 24.43543 | 54.65254 | 87 ft | 49 kts | 128° |
| 2026-04-23 15:40 | 24.43326 | 54.65553 | 85 ft | 52 kts | 128° |
| 2026-04-23 15:40 | 24.43100 | 54.65875 | 87 ft | 54 kts | 127° |
| 2026-04-23 15:41 | 24.42863 | 54.66208 | 88 ft | 56 kts | 127° |
| 2026-04-23 15:41 | 24.42628 | 54.66541 | 87 ft | 52 kts | 128° |
| 2026-04-23 15:41 | 24.42436 | 54.66809 | 86 ft | 44 kts | 128° |
| 2026-04-23 15:41 | 24.42334 | 54.66838 | 86 ft | 14 kts | 212° |
| 2026-04-23 15:42 | 24.42271 | 54.66789 | 87 ft | 11 kts | 217° |
| 2026-04-23 15:42 | 24.42208 | 54.66702 | 86 ft | 17 kts | 264° |
| 2026-04-23 15:42 | 24.42257 | 54.66595 | 87 ft | 18 kts | 307° |
| 2026-04-23 15:42 | 24.42344 | 54.66473 | 86 ft | 21 kts | 308° |
| 2026-04-23 15:43 | 24.42509 | 54.66248 | 88 ft | 81 kts | 308° |
| 2026-04-23 15:43 | 24.43095 | 54.65438 | 117 ft | 183 kts | 312° |
| 2026-04-23 15:43 | 24.43944 | 54.64217 | 804 ft | 221 kts | 310° |
| 2026-04-23 15:43 | 24.44893 | 54.62863 | 1734 ft | 215 kts | 313° |
| 2026-04-23 15:44 | 24.45803 | 54.61584 | 2361 ft | 218 kts | 313° |
| 2026-04-23 15:44 | 24.46755 | 54.60254 | 2868 ft | 223 kts | 311° |
| 2026-04-23 15:44 | 24.47711 | 54.58912 | 3502 ft | 222 kts | 310° |
| 2026-04-23 15:44 | 24.48664 | 54.57574 | 4094 ft | 227 kts | 306° |
| 2026-04-23 15:45 | 24.49666 | 54.56159 | 4557 ft | 241 kts | 305° |
| 2026-04-23 15:45 | 24.50707 | 54.54686 | 5142 ft | 247 kts | 305° |
| 2026-04-23 15:45 | 24.51778 | 54.53175 | 5760 ft | 254 kts | 305° |
| 2026-04-23 15:45 | 24.52863 | 54.51647 | 6453 ft | 254 kts | 305° |
| 2026-04-23 15:46 | 24.53958 | 54.50108 | 7149 ft | 256 kts | 304° |
| 2026-04-23 15:46 | 24.55061 | 54.48545 | 7753 ft | 262 kts | 304° |
| 2026-04-23 15:46 | 24.56187 | 54.46945 | 8355 ft | 267 kts | 304° |
| 2026-04-23 15:46 | 24.57334 | 54.45321 | 9024 ft | 270 kts | 304° |
| 2026-04-23 15:47 | 24.58609 | 54.43775 | 9674 ft | 277 kts | 316° |
| 2026-04-23 15:47 | 24.60281 | 54.42676 | 10284 ft | 285 kts | 338° |
| 2026-04-23 15:47 | 24.62245 | 54.42301 | 10787 ft | 290 kts | 360° |
| 2026-04-23 15:47 | 24.64219 | 54.42751 | 10990 ft | 293 kts | 23° |
| 2026-04-23 15:48 | 24.65918 | 54.43970 | 11028 ft | 293 kts | 43° |
| 2026-04-23 15:48 | 24.67563 | 54.45308 | 11023 ft | 295 kts | 30° |
| 2026-04-23 15:48 | 24.69338 | 54.46463 | 11018 ft | 296 kts | 31° |
| 2026-04-23 15:48 | 24.71104 | 54.47631 | 11016 ft | 296 kts | 31° |
| 2026-04-23 15:49 | 24.72839 | 54.48889 | 11016 ft | 308 kts | 36° |
| 2026-04-23 15:49 | 24.74045 | 54.49829 | 11005 ft | 334 kts | 36° |
| 2026-04-23 15:49 | 24.76744 | 54.51958 | 10990 ft | 382 kts | 36° |
| 2026-04-23 15:49 | 24.78237 | 54.53147 | 10995 ft | 401 kts | 36° |
| 2026-04-23 15:50 | 24.81285 | 54.55585 | 11007 ft | 414 kts | 36° |
| 2026-04-23 15:50 | 24.82859 | 54.56847 | 11011 ft | 415 kts | 36° |
| 2026-04-23 15:50 | 24.85166 | 54.58700 | 11014 ft | 400 kts | 36° |
| 2026-04-23 15:50 | 24.87349 | 54.60455 | 11027 ft | 375 kts | 36° |
| 2026-04-23 15:51 | 24.89367 | 54.62079 | 11032 ft | 353 kts | 36° |
| 2026-04-23 15:51 | 24.91292 | 54.63628 | 11031 ft | 332 kts | 36° |
| 2026-04-23 15:51 | 24.93098 | 54.65084 | 11028 ft | 312 kts | 36° |
| 2026-04-23 15:51 | 24.94836 | 54.66473 | 11031 ft | 317 kts | 35° |
| 2026-04-23 15:52 | 24.96727 | 54.67944 | 10890 ft | 336 kts | 35° |
| 2026-04-23 15:52 | 24.98641 | 54.69430 | 10213 ft | 340 kts | 35° |
| 2026-04-23 15:52 | 25.00596 | 54.70952 | 9554 ft | 344 kts | 36° |
| 2026-04-23 15:52 | 25.02552 | 54.72479 | 8962 ft | 342 kts | 35° |
| 2026-04-23 15:53 | 25.04461 | 54.73972 | 8659 ft | 330 kts | 35° |
| 2026-04-23 15:53 | 25.06303 | 54.75414 | 8433 ft | 318 kts | 35° |
| 2026-04-23 15:53 | 25.08079 | 54.76805 | 8201 ft | 308 kts | 35° |
| 2026-04-23 15:53 | 25.09815 | 54.78166 | 8039 ft | 305 kts | 35° |
| 2026-04-23 15:54 | 25.11545 | 54.79525 | 8018 ft | 306 kts | 35° |
| 2026-04-23 15:54 | 25.13278 | 54.80886 | 8015 ft | 306 kts | 34° |
| 2026-04-23 15:54 | 25.15018 | 54.82250 | 8014 ft | 306 kts | 35° |
| 2026-04-23 15:54 | 25.16736 | 54.83639 | 8016 ft | 307 kts | 38° |
| 2026-04-23 15:55 | 25.18364 | 54.85164 | 8015 ft | 306 kts | 41° |
| 2026-04-23 15:55 | 25.19926 | 54.86754 | 8005 ft | 307 kts | 47° |
| 2026-04-23 15:55 | 25.20997 | 54.88773 | 8014 ft | 304 kts | 73° |
| 2026-04-23 15:55 | 25.21277 | 54.91038 | 8014 ft | 301 kts | 93° |
| 2026-04-23 15:56 | 25.21170 | 54.93345 | 8008 ft | 301 kts | 97° |
| 2026-04-23 15:56 | 25.21002 | 54.95647 | 8009 ft | 301 kts | 97° |
| 2026-04-23 15:56 | 25.20828 | 54.97950 | 8011 ft | 300 kts | 97° |
| 2026-04-23 15:56 | 25.20650 | 55.00243 | 7939 ft | 297 kts | 97° |
| 2026-04-23 15:57 | 25.20477 | 55.02500 | 7559 ft | 297 kts | 97° |
| 2026-04-23 15:57 | 25.20298 | 55.04773 | 7093 ft | 298 kts | 97° |
| 2026-04-23 15:57 | 25.20112 | 55.07050 | 6630 ft | 297 kts | 97° |
| 2026-04-23 15:57 | 25.19917 | 55.09316 | 6212 ft | 294 kts | 97° |
| 2026-04-23 15:58 | 25.19632 | 55.11506 | 6038 ft | 281 kts | 101° |
| 2026-04-23 15:58 | 25.19296 | 55.13574 | 6012 ft | 270 kts | 102° |
| 2026-04-23 15:58 | 25.18957 | 55.15607 | 6015 ft | 270 kts | 102° |
| 2026-04-23 15:58 | 25.18615 | 55.17643 | 6012 ft | 270 kts | 102° |
| 2026-04-23 15:59 | 25.18273 | 55.19685 | 6011 ft | 271 kts | 102° |
| 2026-04-23 15:59 | 25.17930 | 55.21737 | 6012 ft | 271 kts | 102° |
| 2026-04-23 15:59 | 25.17589 | 55.23786 | 6011 ft | 271 kts | 102° |
| 2026-04-23 15:59 | 25.17249 | 55.25828 | 6012 ft | 271 kts | 102° |
| 2026-04-23 16:00 | 25.16913 | 55.27872 | 6012 ft | 270 kts | 102° |
| 2026-04-23 16:00 | 25.16579 | 55.29886 | 5891 ft | 270 kts | 102° |
| 2026-04-23 16:00 | 25.16239 | 55.31925 | 5685 ft | 271 kts | 102° |
| 2026-04-23 16:00 | 25.15891 | 55.33976 | 5236 ft | 272 kts | 102° |
| 2026-04-23 16:01 | 25.15368 | 55.35981 | 4766 ft | 272 kts | 115° |
| 2026-04-23 16:01 | 25.14489 | 55.37834 | 4303 ft | 272 kts | 121° |
| 2026-04-23 16:01 | 25.13527 | 55.39612 | 4043 ft | 265 kts | 122° |
| 2026-04-23 16:01 | 25.12563 | 55.41321 | 4001 ft | 263 kts | 122° |
| 2026-04-23 16:02 | 25.11584 | 55.43036 | 4001 ft | 262 kts | 122° |
| 2026-04-23 16:02 | 25.10620 | 55.44717 | 4001 ft | 262 kts | 122° |
| 2026-04-23 16:02 | 25.09664 | 55.46399 | 4007 ft | 251 kts | 122° |
| 2026-04-23 16:02 | 25.08773 | 55.47963 | 4025 ft | 231 kts | 122° |
| 2026-04-23 16:03 | 25.07946 | 55.49420 | 4050 ft | 219 kts | 122° |
| 2026-04-23 16:03 | 25.07145 | 55.50837 | 4020 ft | 218 kts | 122° |
| 2026-04-23 16:03 | 25.06345 | 55.52256 | 4014 ft | 218 kts | 122° |
| 2026-04-23 16:03 | 25.05805 | 55.53812 | 3982 ft | 220 kts | 96° |
| 2026-04-23 16:04 | 25.06043 | 55.55445 | 3674 ft | 216 kts | 63° |
| 2026-04-23 16:04 | 25.06995 | 55.56727 | 3077 ft | 221 kts | 38° |
| 2026-04-23 16:04 | 25.08398 | 55.57401 | 2546 ft | 221 kts | 7° |
| 2026-04-23 16:04 | 25.09894 | 55.57146 | 2153 ft | 218 kts | 339° |
| 2026-04-23 16:05 | 25.10786 | 55.56677 | 2045 ft | 210 kts | 334° |
| 2026-04-23 16:05 | 25.12400 | 55.55747 | 2006 ft | 181 kts | 335° |
| 2026-04-23 16:05 | 25.13445 | 55.55142 | 2011 ft | 160 kts | 334° |
| 2026-04-23 16:05 | 25.14365 | 55.54542 | 2015 ft | 154 kts | 332° |
| 2026-04-23 16:06 | 25.15222 | 55.53835 | 2013 ft | 147 kts | 324° |
| 2026-04-23 16:06 | 25.15897 | 55.53035 | 2012 ft | 144 kts | 308° |
| 2026-04-23 16:06 | 25.16426 | 55.52088 | 2005 ft | 144 kts | 303° |
| 2026-04-23 16:06 | 25.16959 | 55.51180 | 1989 ft | 138 kts | 318° |
| 2026-04-23 16:07 | 25.17585 | 55.50372 | 1999 ft | 141 kts | 308° |
| 2026-04-23 16:07 | 25.18085 | 55.49425 | 1987 ft | 143 kts | 304° |
| 2026-04-23 16:07 | 25.18590 | 55.48492 | 1840 ft | 141 kts | 307° |
| 2026-04-23 16:07 | 25.19107 | 55.47575 | 1654 ft | 141 kts | 307° |
| 2026-04-23 16:08 | 25.19626 | 55.46653 | 1463 ft | 140 kts | 306° |
| 2026-04-23 16:08 | 25.20133 | 55.45742 | 1289 ft | 138 kts | 306° |
| 2026-04-23 16:08 | 25.20636 | 55.44837 | 1106 ft | 139 kts | 306° |
| 2026-04-23 16:08 | 25.21142 | 55.43925 | 943 ft | 139 kts | 305° |
| 2026-04-23 16:09 | 25.21644 | 55.43020 | 770 ft | 138 kts | 304° |
| 2026-04-23 16:09 | 25.22137 | 55.42129 | 613 ft | 138 kts | 302° |
| 2026-04-23 16:09 | 25.22646 | 55.41209 | 413 ft | 140 kts | 302° |
| 2026-04-23 16:09 | 25.23147 | 55.40302 | 248 ft | 139 kts | 303° |
| 2026-04-23 16:10 | 25.23652 | 55.39390 | 62 ft | 138 kts | 303° |
| 2026-04-23 16:10 | 25.24150 | 55.38503 | 32 ft | 133 kts | 301° |
| 2026-04-23 16:10 | 25.24519 | 55.37822 | 29 ft | 59 kts | 299° |
| 2026-04-23 16:10 | 25.24611 | 55.37470 | 28 ft | 40 kts | 275° |
| 2026-04-23 16:11 | 25.24646 | 55.37227 | 28 ft | 24 kts | 294° |
| 2026-04-23 16:11 | 25.24666 | 55.37188 | 28 ft | 0 kts | 301° |
| 2026-04-23 16:11 | 25.24671 | 55.37178 | 28 ft | 4 kts | 301° |
| 2026-04-23 16:11 | 25.24695 | 55.37134 | 28 ft | 10 kts | 301° |
| 2026-04-23 16:12 | 25.24742 | 55.37050 | 28 ft | 16 kts | 302° |
| 2026-04-23 16:12 | 25.24817 | 55.36917 | 28 ft | 24 kts | 300° |
| 2026-04-23 16:12 | 25.24879 | 55.36724 | 28 ft | 30 kts | 284° |
| 2026-04-23 16:12 | 25.24981 | 55.36505 | 27 ft | 34 kts | 302° |
| 2026-04-23 16:13 | 25.25114 | 55.36269 | 27 ft | 39 kts | 302° |
| 2026-04-23 16:13 | 25.25389 | 55.35781 | 27 ft | 39 kts | 302° |
| 2026-04-23 16:13 | 25.25534 | 55.35524 | 27 ft | 39 kts | 302° |
| 2026-04-23 16:14 | 25.25663 | 55.35295 | 27 ft | 29 kts | 302° |
| 2026-04-23 16:14 | 25.25679 | 55.35266 | 27 ft | 0 kts | 302° |
| 2026-04-23 16:14 | 25.25690 | 55.35246 | 27 ft | 8 kts | 302° |
| 2026-04-23 16:15 | 25.25738 | 55.35158 | 27 ft | 17 kts | 294° |
| 2026-04-23 16:15 | 25.25691 | 55.35050 | 27 ft | 19 kts | 216° |
| 2026-04-23 16:15 | 25.25575 | 55.34964 | 27 ft | 11 kts | 227° |
| 2026-04-23 16:15 | 25.25572 | 55.34893 | 27 ft | 12 kts | 276° |
| 2026-04-23 16:16 | 25.25600 | 55.34786 | 27 ft | 7 kts | 300° |
| 2026-04-23 16:16 | 25.25605 | 55.34777 | 27 ft | 0 kts | 300° |